Weather observations for the past three days for
Norfolk, Stefan Memorial Airport
Imperial (Metric)
Date Time (cdt) Wind (mph) Vis. (mi.) Weather Sky Cond. Temperature (ºF) Relative Humidity Wind Chill (°F) Heat Index (°F) Pressure Precipitation (in)
Air Dwpt 6 hour altimeter (in) sea level (mb) 1 hr 3 hr 6 hr
Max. Min.
07 03:56 SW 8 10.00 Fair CLR 43 34 71% 39 29.86 1011.6
07 02:56 SW 15 10.00 Fair CLR 44.1 33.1 65% 38 29.88 1012.2
07 01:56 SW 10 10.00 Fair CLR 44.1 30.9 60% 39 29.91 1013.2
07 00:56 Calm 10.00 Fair CLR 36 25 59 33.1 64% 29.94 1014.4
06 23:56 Calm 10.00 Fair CLR 39.9 25 55% 29.95 1014.9
06 22:56 S 3 10.00 Fair CLR 35.1 26.1 70% 29.96 1015.3
06 21:56 Calm 10.00 Partly Cloudy SCT100 42.1 21.9 45% 29.97 1015.5
05 21:56 N 9 10.00 Fair CLR 46.9 21 36% 43 29.97 1015.4
05 20:56 N 9 10.00 Fair CLR 48 21 34% 44 29.94 1014.6
05 19:56 N 15 10.00 Fair CLR 50 19.9 30% 45 29.92 1013.9
05 18:56 NW 14 G 23 10.00 Fair CLR 52 21 55.9 52 30% 29.92 1013.8
05 17:56 N 17 G 26 10.00 Fair CLR 53.1 21 28% 29.91 1013.6
05 16:56 NW 17 G 23 10.00 Partly Cloudy SCT075 55 21.9 28% 29.91 1013.5
05 15:56 N 12 G 22 10.00 Mostly Cloudy BKN070 54 24.1 31% 29.92 1013.7
05 14:56 NW 18 G 25 10.00 A Few Clouds FEW070 55 24.1 30% 29.94 1014.1
05 13:56 NW 17 G 29 10.00 Partly Cloudy SCT065 55.9 25 30% 29.93 1014.0
05 12:56 NW 14 G 23 10.00 A Few Clouds FEW060 53.1 26.1 53.1 39 35% 29.96 1014.8
05 11:56 N 9 G 21 10.00 A Few Clouds FEW085 50 26.1 39% 47 29.96 1015.0
05 10:56 N 12 10.00 Fair CLR 48.9 25 39% 45 29.96 1014.7
05 09:56 NW 6 10.00 Mostly Cloudy BKN120 46 30 54% 44 29.95 1014.4
05 08:56 N 7 10.00 Partly Cloudy SCT120 45 28.9 54% 42 29.93 1013.8
05 07:56 NW 5 10.00 Mostly Cloudy BKN110 43 33.1 68% 41 29.91 1013.2
05 06:56 NW 5 10.00 Fair CLR 39 34 45 35.1 82% 36 29.88 1012.1
05 05:56 W 5 10.00 Fair CLR 36 32 86% 33 29.86 1011.7
05 04:56 W 3 10.00 Fair CLR 36 32 86% 29.86 1011.2
05 03:56 NW 5 10.00 Fair CLR 41 32 70% 38 29.85 1010.6
05 02:56 NW 5 10.00 Fair CLR 42.1 35.1 76% 40 29.84 1010.2
05 01:56 Calm 10.00 Fair CLR 44.1 39 83% 29.81 1009.4
05 00:56 Calm 10.00 Fair CLR 44.1 39 57.9 43 83% 29.81 1009.4
04 23:56 W 3 10.00 A Few Clouds FEW110 46.9 39.9 77% 29.82 1009.5
04 22:56 Calm 10.00 Overcast BKN070 BKN090 OVC120 50 39.9 68% 29.82 1009.4
04 21:56 NW 5 10.00 Overcast SCT080 OVC110 51.1 39.9 66% 29.82 1009.3
04 20:56 N 8 10.00 Light Rain OVC070 51.1 39 64% 29.78 1008.1
04 19:56 N 14 10.00 Partly Cloudy SCT100 SCT120 55.9 32 40% 29.78 1008.0
04 18:56 N 22 G 31 10.00 Mostly Cloudy and Breezy FEW075 SCT095 BKN120 57.9 32 71.1 57.9 38% 29.76 1007.9
04 17:56 N 24 G 36 10.00 Fair and Breezy CLR 62.1 33.1 34% 29.74 1006.9
04 16:56 N 26 G 35 10.00 Fair and Windy CLR 69.1 32 25% 29.7 1005.3
04 15:56 N 24 G 33 10.00 Fair and Breezy CLR 70 30.9 23% 29.69 1005.2
04 14:56 N 21 G 31 10.00 Fair and Breezy CLR 71.1 34 26% 29.67 1004.5
04 13:56 N 23 G 33 10.00 Fair and Breezy CLR 71.1 34 26% 29.67 1004.1
04 12:56 N 24 G 33 10.00 Fair and Breezy CLR 70 32 72 45 25% 29.66 1003.9
04 11:56 N 20 G 29 10.00 Fair CLR 69.1 41 36% 29.66 1003.8
04 10:56 NW 20 G 28 10.00 Fair CLR 68 44.1 42% 29.64 1003.2
04 09:56 NW 17 10.00 Fair CLR 70 41 35% 29.61 1002.2
04 08:56 W 14 10.00 Fair CLR 69.1 39 33% 29.59 1001.2
04 07:56 W 8 10.00 Fair CLR 60.1 39.9 48% 29.6 1001.8
04 06:56 NW 3 10.00 Fair CLR 45 36 57 42.1 71% 29.61 1002.3
04 05:56 SW 3 10.00 Fair CLR 45 36 71% 29.61 1002.3
04 04:56 SW 5 10.00 A Few Clouds FEW100 46 36 68% 44 29.63 1003.0
Date Time (cdt) Wind (mph) Vis. (mi.) Weather Sky Cond. Air Dwpt Max. Min. Relative Humidity Wind Chill (°F) Heat Index (°F) altimeter (in) sea level (mb) 1 hr 3 hr 6 hr
6 hour
Temperature (ºF) Pressure Precipitation (in)